Springfield, Illinois
Current Conditions -  °F | °C
As of 4:26 AM on Friday 24 Oct 2014 (Local Time) from KSPI Reporting Station
Few Clouds Few Clouds  
Wind Chill: 48°   Ceiling: Unl
Heat Index: 48°   Visibility: 10mi
Dew Point: 44°   Wind: 3mph
Humidity: 86%   Direction: 230°SW
Pressure: 30.07"   Gusts: NA
Location:  39.8°N, 89.64°W
Report Text: KSPI 240926Z AUTO 23003KT 10SM FEW009 09/07 A3007 RMK AO2 T00890067
Loading
Personal Weather Stations






























Interactive Weather Map New forecast layout! Learn more

10-Day Weather Forecast

Advertisements
Track Severe Weather on mobile